Portada
METAR-TAF:

METAR-TAF

Aeroports :

Pau, França

latitud: 43-23N, longitud: 000-25W, altitud: 188 m

Observació

L'informe es va fer fa 23 minuts, a les 17:00 UTC
Vent 5 kt del Nord/Nord-Oest
Temperatura 19°C
Humitat 73%
Pressió 1018 hPa
Visibilitat 10 km o més
sense núvols per sota de 1500 mi sense presència de cumulonimbus.

METAR: LFBP 191700Z AUTO 33005KT CAVOK 19/14 Q1018 NOSIG

Hora: 19:23 (17:23 UTC)

Pronòstic

L'informe es va fer fa 6 hores i 23 minuts, a les 11:00 UTC
Pronòstic vàlid del 19 a les 12 UTC al 20 a les 12 UTC
Vent 5 kt del Nord
Visibilitat 10 km o més
Núvols disperses a una alçada de 2000 ft
Evolucionant progressivament
l' 19 a les 20 UTC al 19 a les 22 UTC
Cel ennuvolat a una alçada de 2000 ft
Evolucionant progressivament
l' 20 a les 00 UTC al 20 a les 02 UTC
Vent 2 kt amb direcció variable
Cel ennuvolat a una alçada de 600 ft

TAF: LFBP 191100Z 1912/2012 35005KT 9999 SCT020 BECMG 1920/1922 BKN020 BECMG 2000/2002 VRB02KT BKN006

Observacions i pronòstics meteorològics de més de 4000 aeroports (METAR i TAF).

Les estacions disponibles són els punts grocs i vermells al mapa.

Posi el ratolí al punt desitjat per veure el nom de l'estació.

Feu clic per veure les observacions i els pronòstics meteorològics.

Per canviar el mapa: feu clic els botons verds amb una creu de color negre per apropar; al botó verd amb un guió per allunyar la imatge; o en les fletxes verdes per a mapes adjacents.


METAR-TAF: